sensor_id;sensor_type;location;lat;lon;timestamp;pressure;altitude;pressure_sealevel;temperature;humidity
81897;BME280;71360;43.506;1.500;2023-07-13T00:00:28;100029.75;;;28.47;47.01
81897;BME280;71360;43.506;1.500;2023-07-13T00:02:54;100024.25;;;28.47;47.33
81897;BME280;71360;43.506;1.500;2023-07-13T00:05:20;100032.50;;;28.47;47.12
81897;BME280;71360;43.506;1.500;2023-07-13T00:07:47;100028.91;;;28.46;46.91
81897;BME280;71360;43.506;1.500;2023-07-13T00:10:14;100025.28;;;28.46;47.45
81897;BME280;71360;43.506;1.500;2023-07-13T00:12:39;100028.91;;;28.46;47.17
81897;BME280;71360;43.506;1.500;2023-07-13T00:15:26;100027.69;;;28.49;46.79
81897;BME280;71360;43.506;1.500;2023-07-13T00:17:53;100034.41;;;28.46;47.08
81897;BME280;71360;43.506;1.500;2023-07-13T00:20:22;100029.75;;;28.47;47.44
81897;BME280;71360;43.506;1.500;2023-07-13T00:22:49;100031.66;;;28.46;47.42
81897;BME280;71360;43.506;1.500;2023-07-13T00:25:15;100031.66;;;28.46;47.30
81897;BME280;71360;43.506;1.500;2023-07-13T00:27:43;100038.00;;;28.47;47.33
81897;BME280;71360;43.506;1.500;2023-07-13T00:30:09;100028.91;;;28.46;47.13
81897;BME280;71360;43.506;1.500;2023-07-13T00:32:35;100021.53;;;28.47;46.97
81897;BME280;71360;43.506;1.500;2023-07-13T00:35:01;100023.41;;;28.46;47.44
81897;BME280;71360;43.506;1.500;2023-07-13T00:37:28;100015.19;;;28.46;47.67
81897;BME280;71360;43.506;1.500;2023-07-13T00:39:54;100018.94;;;28.45;47.54
81897;BME280;71360;43.506;1.500;2023-07-13T00:42:19;100021.69;;;28.45;47.20
81897;BME280;71360;43.506;1.500;2023-07-13T00:47:50;100021.69;;;28.45;47.45
81897;BME280;71360;43.506;1.500;2023-07-13T00:50:16;100017.22;;;28.44;47.09
81897;BME280;71360;43.506;1.500;2023-07-13T00:52:46;100022.72;;;28.44;47.69
81897;BME280;71360;43.506;1.500;2023-07-13T00:55:14;100017.22;;;28.44;47.14
81897;BME280;71360;43.506;1.500;2023-07-13T00:57:41;100014.47;;;28.44;47.11
81897;BME280;71360;43.506;1.500;2023-07-13T01:00:08;100020.81;;;28.45;47.03
81897;BME280;71360;43.506;1.500;2023-07-13T01:02:37;100020.81;;;28.45;47.73
81897;BME280;71360;43.506;1.500;2023-07-13T01:05:11;100025.47;;;28.44;46.96
81897;BME280;71360;43.506;1.500;2023-07-13T01:07:36;100022.06;;;28.42;47.69
81897;BME280;71360;43.506;1.500;2023-07-13T01:13:10;100024.63;;;28.44;47.75
81897;BME280;71360;43.506;1.500;2023-07-13T01:15:44;100023.75;;;28.43;47.46
81897;BME280;71360;43.506;1.500;2023-07-13T01:18:29;100027.19;;;28.45;47.20
81897;BME280;71360;43.506;1.500;2023-07-13T01:20:55;100024.81;;;28.42;47.08
81897;BME280;71360;43.506;1.500;2023-07-13T01:23:22;100023.75;;;28.43;47.48
81897;BME280;71360;43.506;1.500;2023-07-13T01:25:48;100028.41;;;28.43;47.56
81897;BME280;71360;43.506;1.500;2023-07-13T01:28:14;100027.56;;;28.42;47.56
81897;BME280;71360;43.506;1.500;2023-07-13T01:30:43;100033.06;;;28.42;47.69
81897;BME280;71360;43.506;1.500;2023-07-13T01:33:14;100038.38;;;28.44;47.28
81897;BME280;71360;43.506;1.500;2023-07-13T01:35:42;100038.56;;;28.42;47.55
81897;BME280;71360;43.506;1.500;2023-07-13T01:38:09;100033.06;;;28.42;47.99
81897;BME280;71360;43.506;1.500;2023-07-13T01:40:35;100028.41;;;28.43;47.95
81897;BME280;71360;43.506;1.500;2023-07-13T01:43:01;100026.69;;;28.42;47.40
81897;BME280;71360;43.506;1.500;2023-07-13T01:45:26;100034.75;;;28.43;47.98
81897;BME280;71360;43.506;1.500;2023-07-13T01:47:52;100033.91;;;28.43;47.85
81897;BME280;71360;43.506;1.500;2023-07-13T01:50:18;100033.91;;;28.43;47.69
81897;BME280;71360;43.506;1.500;2023-07-13T01:52:43;100039.41;;;28.43;47.72
81897;BME280;71360;43.506;1.500;2023-07-13T01:55:09;100041.28;;;28.42;47.88
81897;BME280;71360;43.506;1.500;2023-07-13T01:57:34;100044.03;;;28.42;48.00
81897;BME280;71360;43.506;1.500;2023-07-13T02:00:03;100040.25;;;28.43;47.79
81897;BME280;71360;43.506;1.500;2023-07-13T02:02:30;100038.56;;;28.42;47.86
81897;BME280;71360;43.506;1.500;2023-07-13T02:04:56;100036.81;;;28.41;47.21
81897;BME280;71360;43.506;1.500;2023-07-13T02:07:21;100041.28;;;28.42;47.75
81897;BME280;71360;43.506;1.500;2023-07-13T02:09:47;100033.06;;;28.42;47.67
81897;BME280;71360;43.506;1.500;2023-07-13T02:12:12;100027.56;;;28.42;47.28
81897;BME280;71360;43.506;1.500;2023-07-13T02:14:38;100034.06;;;28.41;47.89
81897;BME280;71360;43.506;1.500;2023-07-13T02:17:04;100031.31;;;28.41;47.88
81897;BME280;71360;43.506;1.500;2023-07-13T02:19:30;100028.56;;;28.41;47.56
81897;BME280;71360;43.506;1.500;2023-07-13T02:21:55;100035.94;;;28.41;47.26
81897;BME280;71360;43.506;1.500;2023-07-13T02:24:21;100035.09;;;28.40;47.53
81897;BME280;71360;43.506;1.500;2023-07-13T02:26:46;100053.31;;;28.41;47.81
81897;BME280;71360;43.506;1.500;2023-07-13T02:29:13;100045.06;;;28.41;47.50
81897;BME280;71360;43.506;1.500;2023-07-13T02:31:38;100042.31;;;28.41;47.16
81897;BME280;71360;43.506;1.500;2023-07-13T02:34:04;100039.56;;;28.41;47.81
81897;BME280;71360;43.506;1.500;2023-07-13T02:36:30;100035.94;;;28.41;47.63
81897;BME280;71360;43.506;1.500;2023-07-13T02:38:57;100036.81;;;28.41;47.60
81897;BME280;71360;43.506;1.500;2023-07-13T02:41:23;100041.44;;;28.41;47.10
81897;BME280;71360;43.506;1.500;2023-07-13T02:43:48;100045.06;;;28.41;47.47
81897;BME280;71360;43.506;1.500;2023-07-13T02:46:14;100048.84;;;28.40;47.32
81897;BME280;71360;43.506;1.500;2023-07-13T02:48:40;100048.84;;;28.40;47.53
81897;BME280;71360;43.506;1.500;2023-07-13T02:51:06;100044.38;;;28.39;47.04
81897;BME280;71360;43.506;1.500;2023-07-13T02:53:32;100052.63;;;28.39;47.59
81897;BME280;71360;43.506;1.500;2023-07-13T02:55:58;100055.38;;;28.39;47.27
81897;BME280;71360;43.506;1.500;2023-07-13T02:58:24;100052.63;;;28.39;47.36
81897;BME280;71360;43.506;1.500;2023-07-13T03:00:49;100058.13;;;28.39;47.56
81897;BME280;71360;43.506;1.500;2023-07-13T03:03:15;100065.50;;;28.39;47.24
81897;BME280;71360;43.506;1.500;2023-07-13T03:05:43;100060.69;;;28.41;47.02
81897;BME280;71360;43.506;1.500;2023-07-13T03:08:10;100067.25;;;28.40;47.07
81897;BME280;71360;43.506;1.500;2023-07-13T03:10:37;100049.03;;;28.39;47.48
81897;BME280;71360;43.506;1.500;2023-07-13T03:13:03;100064.66;;;28.38;46.67
81897;BME280;71360;43.506;1.500;2023-07-13T03:15:28;100065.50;;;28.39;47.31
81897;BME280;71360;43.506;1.500;2023-07-13T03:17:54;100070.16;;;28.38;47.18
81897;BME280;71360;43.506;1.500;2023-07-13T03:20:19;100064.66;;;28.38;47.20
81897;BME280;71360;43.506;1.500;2023-07-13T03:22:45;100068.44;;;28.37;46.63
81897;BME280;71360;43.506;1.500;2023-07-13T03:25:11;100079.44;;;28.37;46.59
81897;BME280;71360;43.506;1.500;2023-07-13T03:27:37;100087.69;;;28.37;46.92
81897;BME280;71360;43.506;1.500;2023-07-13T03:30:04;100089.56;;;28.37;46.48
81897;BME280;71360;43.506;1.500;2023-07-13T03:32:30;100090.44;;;28.37;46.64
81897;BME280;71360;43.506;1.500;2023-07-13T03:34:55;100095.06;;;28.37;46.50
81897;BME280;71360;43.506;1.500;2023-07-13T03:37:21;100090.44;;;28.37;46.23
81897;BME280;71360;43.506;1.500;2023-07-13T03:39:46;100100.56;;;28.37;46.71
81897;BME280;71360;43.506;1.500;2023-07-13T03:42:12;100103.31;;;28.37;46.28
81897;BME280;71360;43.506;1.500;2023-07-13T03:44:39;100110.69;;;28.36;46.54
81897;BME280;71360;43.506;1.500;2023-07-13T03:47:05;100119.97;;;28.35;45.83
81897;BME280;71360;43.506;1.500;2023-07-13T03:49:32;100119.97;;;28.35;46.01
81897;BME280;71360;43.506;1.500;2023-07-13T03:51:57;100112.75;;;28.34;45.88
81897;BME280;71360;43.506;1.500;2023-07-13T03:54:23;100107.25;;;28.34;45.26
81897;BME280;71360;43.506;1.500;2023-07-13T03:56:48;100110.00;;;28.34;45.66
81897;BME280;71360;43.506;1.500;2023-07-13T03:59:14;100109.31;;;28.32;45.58
81897;BME280;71360;43.506;1.500;2023-07-13T04:01:39;100108.47;;;28.32;45.55
81897;BME280;71360;43.506;1.500;2023-07-13T04:04:05;100106.75;;;28.30;45.20
81897;BME280;71360;43.506;1.500;2023-07-13T04:06:31;100115.84;;;28.31;44.36
81897;BME280;71360;43.506;1.500;2023-07-13T04:08:59;100110.34;;;28.31;44.97
81897;BME280;71360;43.506;1.500;2023-07-13T04:11:27;100121.53;;;28.29;44.15
81897;BME280;71360;43.506;1.500;2023-07-13T04:13:54;100117.94;;;28.29;44.40
81897;BME280;71360;43.506;1.500;2023-07-13T04:16:20;100120.66;;;28.29;44.25
81897;BME280;71360;43.506;1.500;2023-07-13T04:18:47;100119.78;;;28.28;44.40
81897;BME280;71360;43.506;1.500;2023-07-13T04:21:13;100122.72;;;28.27;44.11
81897;BME280;71360;43.506;1.500;2023-07-13T04:23:38;100119.97;;;28.27;44.39
81897;BME280;71360;43.506;1.500;2023-07-13T04:26:04;100127.53;;;28.25;44.17
81897;BME280;71360;43.506;1.500;2023-07-13T04:28:30;100136.63;;;28.25;44.12
81897;BME280;71360;43.506;1.500;2023-07-13T04:30:55;100138.53;;;28.25;44.01
81897;BME280;71360;43.506;1.500;2023-07-13T04:33:21;100140.41;;;28.24;43.87
81897;BME280;71360;43.506;1.500;2023-07-13T04:35:49;100150.56;;;28.24;43.36
81897;BME280;71360;43.506;1.500;2023-07-13T04:38:15;100148.81;;;28.23;43.33
81897;BME280;71360;43.506;1.500;2023-07-13T04:40:45;100148.81;;;28.23;43.74
81897;BME280;71360;43.506;1.500;2023-07-13T04:43:11;100152.59;;;28.22;43.29
81897;BME280;71360;43.506;1.500;2023-07-13T04:45:36;100153.47;;;28.22;43.77
81897;BME280;71360;43.506;1.500;2023-07-13T04:48:02;100156.41;;;28.21;43.74
81897;BME280;71360;43.506;1.500;2023-07-13T04:50:28;100161.91;;;28.21;43.17
81897;BME280;71360;43.506;1.500;2023-07-13T04:52:53;100159.16;;;28.21;43.42
81897;BME280;71360;43.506;1.500;2023-07-13T04:55:19;100161.00;;;28.20;43.46
81897;BME280;71360;43.506;1.500;2023-07-13T04:57:45;100165.66;;;28.20;42.77
81897;BME280;71360;43.506;1.500;2023-07-13T05:00:12;100173.91;;;28.20;42.82
81897;BME280;71360;43.506;1.500;2023-07-13T05:02:39;100169.44;;;28.19;43.12
81897;BME280;71360;43.506;1.500;2023-07-13T05:05:06;100175.94;;;28.18;43.43
81897;BME280;71360;43.506;1.500;2023-07-13T05:07:31;100184.19;;;28.18;42.53
81897;BME280;71360;43.506;1.500;2023-07-13T05:09:59;100187.81;;;28.18;42.83
81897;BME280;71360;43.506;1.500;2023-07-13T05:12:25;100188.84;;;28.17;42.42
81897;BME280;71360;43.506;1.500;2023-07-13T05:14:51;100196.25;;;28.17;42.96
81897;BME280;71360;43.506;1.500;2023-07-13T05:17:16;100198.09;;;28.16;42.22
81897;BME280;71360;43.506;1.500;2023-07-13T05:19:42;100192.78;;;28.15;42.69
81897;BME280;71360;43.506;1.500;2023-07-13T05:22:08;100190.03;;;28.15;42.76
81897;BME280;71360;43.506;1.500;2023-07-13T05:24:36;100193.81;;;28.13;42.61
81897;BME280;71360;43.506;1.500;2023-07-13T05:27:02;100183.69;;;28.14;42.36
81897;BME280;71360;43.506;1.500;2023-07-13T05:29:27;100188.31;;;28.13;42.40
81897;BME280;71360;43.506;1.500;2023-07-13T05:31:54;100186.63;;;28.12;42.38
81897;BME280;71360;43.506;1.500;2023-07-13T05:34:20;100194.84;;;28.12;42.14
81897;BME280;71360;43.506;1.500;2023-07-13T05:36:45;100196.72;;;28.12;41.96
81897;BME280;71360;43.506;1.500;2023-07-13T05:39:11;100198.47;;;28.13;41.78
81897;BME280;71360;43.506;1.500;2023-07-13T05:41:37;100187.47;;;28.13;42.16
81897;BME280;71360;43.506;1.500;2023-07-13T05:44:03;100192.09;;;28.12;42.22
81897;BME280;71360;43.506;1.500;2023-07-13T05:46:28;100185.75;;;28.12;42.04
81897;BME280;71360;43.506;1.500;2023-07-13T05:48:54;100197.59;;;28.12;41.93
81897;BME280;71360;43.506;1.500;2023-07-13T05:51:19;100203.09;;;28.12;41.46
81897;BME280;71360;43.506;1.500;2023-07-13T05:53:45;100209.44;;;28.13;42.27
81897;BME280;71360;43.506;1.500;2023-07-13T05:56:10;100205.84;;;28.12;42.08
81897;BME280;71360;43.506;1.500;2023-07-13T05:58:36;100204.78;;;28.13;41.62
81897;BME280;71360;43.506;1.500;2023-07-13T06:01:10;100204.78;;;28.13;41.31
81897;BME280;71360;43.506;1.500;2023-07-13T06:03:35;100205.84;;;28.12;41.55
81897;BME280;71360;43.506;1.500;2023-07-13T06:06:04;100209.44;;;28.13;41.54
81897;BME280;71360;43.506;1.500;2023-07-13T06:08:30;100210.28;;;28.13;41.21
81897;BME280;71360;43.506;1.500;2023-07-13T06:11:23;100221.13;;;28.15;41.74
81897;BME280;71360;43.506;1.500;2023-07-13T06:13:47;100217.53;;;28.15;41.52
81897;BME280;71360;43.506;1.500;2023-07-13T06:16:14;100215.78;;;28.13;41.85
81897;BME280;71360;43.506;1.500;2023-07-13T06:18:40;100229.34;;;28.15;41.59
81897;BME280;71360;43.506;1.500;2023-07-13T06:21:13;100225.59;;;28.16;41.32
81897;BME280;71360;43.506;1.500;2023-07-13T06:23:39;100232.09;;;28.15;41.20
81897;BME280;71360;43.506;1.500;2023-07-13T06:26:05;100241.22;;;28.16;41.78
81897;BME280;71360;43.506;1.500;2023-07-13T06:28:33;100241.22;;;28.16;41.24
81897;BME280;71360;43.506;1.500;2023-07-13T06:30:58;100251.19;;;28.17;41.37
81897;BME280;71360;43.506;1.500;2023-07-13T06:33:25;100254.78;;;28.17;41.46
81897;BME280;71360;43.506;1.500;2023-07-13T06:35:50;100257.53;;;28.17;41.43
81897;BME280;71360;43.506;1.500;2023-07-13T06:38:16;100255.66;;;28.18;41.19
81897;BME280;71360;43.506;1.500;2023-07-13T06:40:42;100254.78;;;28.17;41.09
81897;BME280;71360;43.506;1.500;2023-07-13T06:43:07;100254.78;;;28.17;41.49
81897;BME280;71360;43.506;1.500;2023-07-13T06:45:41;100251.03;;;28.18;41.28
81897;BME280;71360;43.506;1.500;2023-07-13T06:48:07;100253.94;;;28.17;40.66
81897;BME280;71360;43.506;1.500;2023-07-13T06:50:33;100255.31;;;28.12;40.80
81897;BME280;71360;43.506;1.500;2023-07-13T06:52:59;100259.06;;;28.03;40.66
81897;BME280;71360;43.506;1.500;2023-07-13T06:55:26;100267.41;;;27.93;40.50
81897;BME280;71360;43.506;1.500;2023-07-13T06:57:51;100262.53;;;27.79;39.95
81897;BME280;71360;43.506;1.500;2023-07-13T07:00:17;100271.72;;;27.61;40.77
81897;BME280;71360;43.506;1.500;2023-07-13T07:02:43;100278.66;;;27.48;40.88
81897;BME280;71360;43.506;1.500;2023-07-13T07:05:08;100277.34;;;27.34;40.46
81897;BME280;71360;43.506;1.500;2023-07-13T07:07:34;100276.75;;;27.22;40.43
81897;BME280;71360;43.506;1.500;2023-07-13T07:10:00;100283.19;;;27.12;41.30
81897;BME280;71360;43.506;1.500;2023-07-13T07:12:25;100278.50;;;27.05;40.97
81897;BME280;71360;43.506;1.500;2023-07-13T07:14:51;100281.91;;;26.99;41.10
81897;BME280;71360;43.506;1.500;2023-07-13T07:17:16;100302.44;;;26.94;41.32
81897;BME280;71360;43.506;1.500;2023-07-13T07:19:42;100296.38;;;26.91;41.01
81897;BME280;71360;43.506;1.500;2023-07-13T07:22:08;100300.47;;;26.87;41.55
81897;BME280;71360;43.506;1.500;2023-07-13T07:24:33;100294.59;;;26.82;41.71
81897;BME280;71360;43.506;1.500;2023-07-13T07:26:59;100287.00;;;26.75;41.41
81897;BME280;71360;43.506;1.500;2023-07-13T07:29:24;100288.47;;;26.70;42.01
81897;BME280;71360;43.506;1.500;2023-07-13T07:31:52;100296.75;;;26.60;41.54
81897;BME280;71360;43.506;1.500;2023-07-13T07:34:17;100294.66;;;26.54;42.21
81897;BME280;71360;43.506;1.500;2023-07-13T07:36:43;100298.00;;;26.48;42.25
81897;BME280;71360;43.506;1.500;2023-07-13T07:39:08;100302.06;;;26.43;42.10
81897;BME280;71360;43.506;1.500;2023-07-13T07:41:34;100305.28;;;26.39;41.71
81897;BME280;71360;43.506;1.500;2023-07-13T07:43:59;100296.50;;;26.35;42.29
81897;BME280;71360;43.506;1.500;2023-07-13T07:46:25;100292.50;;;26.29;42.69
81897;BME280;71360;43.506;1.500;2023-07-13T07:48:51;100295.00;;;26.23;41.75
81897;BME280;71360;43.506;1.500;2023-07-13T07:51:16;100291.16;;;26.16;41.94
81897;BME280;71360;43.506;1.500;2023-07-13T07:53:42;100287.00;;;26.11;42.72
81897;BME280;71360;43.506;1.500;2023-07-13T07:56:07;100284.56;;;26.08;42.72
81897;BME280;71360;43.506;1.500;2023-07-13T07:58:33;100293.78;;;26.07;42.31
81897;BME280;71360;43.506;1.500;2023-07-13T08:01:03;100297.53;;;26.06;43.04
81897;BME280;71360;43.506;1.500;2023-07-13T08:03:29;100292.38;;;26.03;43.22
81897;BME280;71360;43.506;1.500;2023-07-13T08:05:55;100302.44;;;26.03;42.57
81897;BME280;71360;43.506;1.500;2023-07-13T08:08:20;100291.63;;;26.01;43.16
81897;BME280;71360;43.506;1.500;2023-07-13T08:10:46;100290.94;;;25.99;42.47
81897;BME280;71360;43.506;1.500;2023-07-13T08:13:11;100295.53;;;25.99;42.85
81897;BME280;71360;43.506;1.500;2023-07-13T08:15:37;100295.69;;;25.97;42.42
81897;BME280;71360;43.506;1.500;2023-07-13T08:18:02;100281.97;;;25.97;42.71
81897;BME280;71360;43.506;1.500;2023-07-13T08:20:28;100292.94;;;25.97;42.51
81897;BME280;71360;43.506;1.500;2023-07-13T08:22:53;100296.00;;;25.94;42.65
81897;BME280;71360;43.506;1.500;2023-07-13T08:25:19;100289.78;;;25.92;42.39
81897;BME280;71360;43.506;1.500;2023-07-13T08:27:46;100290.97;;;25.89;42.40
81897;BME280;71360;43.506;1.500;2023-07-13T08:30:11;100288.69;;;25.85;43.07
81897;BME280;71360;43.506;1.500;2023-07-13T08:32:37;100279.78;;;25.83;42.47
81897;BME280;71360;43.506;1.500;2023-07-13T08:35:04;100283.50;;;25.82;42.71
81897;BME280;71360;43.506;1.500;2023-07-13T08:37:29;100294.47;;;25.82;42.41
81897;BME280;71360;43.506;1.500;2023-07-13T08:39:55;100296.31;;;25.81;42.74
81897;BME280;71360;43.506;1.500;2023-07-13T08:42:37;100290.84;;;25.81;42.55
81897;BME280;71360;43.506;1.500;2023-07-13T08:47:42;100298.38;;;25.79;42.71
81897;BME280;71360;43.506;1.500;2023-07-13T08:50:17;100289.31;;;25.78;42.41
81897;BME280;71360;43.506;1.500;2023-07-13T08:52:43;100292.03;;;25.78;41.61
81897;BME280;71360;43.506;1.500;2023-07-13T08:55:19;100288.41;;;25.78;41.97
81897;BME280;71360;43.506;1.500;2023-07-13T08:57:53;100279.66;;;25.74;42.06
81897;BME280;71360;43.506;1.500;2023-07-13T09:00:19;100280.66;;;25.73;41.92
81897;BME280;71360;43.506;1.500;2023-07-13T09:02:52;100282.41;;;25.74;41.83
81897;BME280;71360;43.506;1.500;2023-07-13T09:05:29;100278.63;;;25.75;42.66
81897;BME280;71360;43.506;1.500;2023-07-13T09:10:51;100272.88;;;25.78;42.33
81897;BME280;71360;43.506;1.500;2023-07-13T09:15:53;100281.22;;;25.77;42.02
81897;BME280;71360;43.506;1.500;2023-07-13T09:18:48;100286.56;;;25.78;41.85
81897;BME280;71360;43.506;1.500;2023-07-13T09:21:18;100281.81;;;25.71;41.80
81897;BME280;71360;43.506;1.500;2023-07-13T09:23:47;100282.69;;;25.71;41.42
81897;BME280;71360;43.506;1.500;2023-07-13T09:26:16;100279.94;;;25.71;41.50
81897;BME280;71360;43.506;1.500;2023-07-13T09:28:45;100277.19;;;25.71;41.75
81897;BME280;71360;43.506;1.500;2023-07-13T09:31:15;100277.19;;;25.71;41.03
81897;BME280;71360;43.506;1.500;2023-07-13T09:33:43;100274.63;;;25.70;41.84
81897;BME280;71360;43.506;1.500;2023-07-13T09:36:19;100274.47;;;25.71;41.61
81897;BME280;71360;43.506;1.500;2023-07-13T09:38:45;100278.94;;;25.72;41.40
81897;BME280;71360;43.506;1.500;2023-07-13T09:41:19;100284.09;;;25.75;42.26
81897;BME280;71360;43.506;1.500;2023-07-13T09:46:42;100281.34;;;25.75;41.65
81897;BME280;71360;43.506;1.500;2023-07-13T09:49:10;100281.66;;;25.72;41.64
81897;BME280;71360;43.506;1.500;2023-07-13T09:51:45;100278.94;;;25.72;42.33
81897;BME280;71360;43.506;1.500;2023-07-13T09:54:20;100278.09;;;25.72;41.97
81897;BME280;71360;43.506;1.500;2023-07-13T09:56:46;100277.19;;;25.71;42.31
81897;BME280;71360;43.506;1.500;2023-07-13T09:59:23;100277.78;;;25.75;42.32
81897;BME280;71360;43.506;1.500;2023-07-13T10:01:49;100275.03;;;25.75;42.42
81897;BME280;71360;43.506;1.500;2023-07-13T10:04:18;100282.09;;;25.77;41.73
81897;BME280;71360;43.506;1.500;2023-07-13T10:06:44;100294.47;;;25.82;42.08
81897;BME280;71360;43.506;1.500;2023-07-13T10:09:15;100293.84;;;25.88;42.16
81897;BME280;71360;43.506;1.500;2023-07-13T10:11:41;100284.31;;;25.92;42.22
81897;BME280;71360;43.506;1.500;2023-07-13T10:14:14;100281.97;;;25.97;41.96
81897;BME280;71360;43.506;1.500;2023-07-13T10:16:43;100302.44;;;26.03;42.26
81897;BME280;71360;43.506;1.500;2023-07-13T10:21:49;100300.69;;;26.11;42.33
81897;BME280;71360;43.506;1.500;2023-07-13T10:24:20;100297.47;;;26.16;42.41
81897;BME280;71360;43.506;1.500;2023-07-13T10:29:32;100303.06;;;26.24;42.34
81897;BME280;71360;43.506;1.500;2023-07-13T10:32:00;100291.81;;;26.27;42.00
81897;BME280;71360;43.506;1.500;2023-07-13T10:34:26;100290.47;;;26.32;42.55
81897;BME280;71360;43.506;1.500;2023-07-13T10:36:52;100287.44;;;26.35;42.42
81897;BME280;71360;43.506;1.500;2023-07-13T10:39:27;100287.09;;;26.38;42.25
81897;BME280;71360;43.506;1.500;2023-07-13T10:42:06;100290.56;;;26.40;42.54
81897;BME280;71360;43.506;1.500;2023-07-13T10:44:37;100288.69;;;26.40;41.86
81897;BME280;71360;43.506;1.500;2023-07-13T10:47:07;100284.78;;;26.43;42.38
81897;BME280;71360;43.506;1.500;2023-07-13T10:49:35;100292.84;;;26.44;42.05
81897;BME280;71360;43.506;1.500;2023-07-13T10:52:02;100301.78;;;26.47;42.24
81897;BME280;71360;43.506;1.500;2023-07-13T10:54:34;100301.47;;;26.50;42.40
81897;BME280;71360;43.506;1.500;2023-07-13T10:57:19;100289.31;;;26.52;42.04
81897;BME280;71360;43.506;1.500;2023-07-13T11:02:30;100287.44;;;26.53;42.58
81897;BME280;71360;43.506;1.500;2023-07-13T11:04:56;100282.69;;;26.55;42.55
81897;BME280;71360;43.506;1.500;2023-07-13T11:07:28;100292.59;;;26.56;42.88
81897;BME280;71360;43.506;1.500;2023-07-13T11:09:56;100286.81;;;26.59;42.08
81897;BME280;71360;43.506;1.500;2023-07-13T11:17:53;100275.22;;;26.65;42.27
81897;BME280;71360;43.506;1.500;2023-07-13T11:20:32;100271.78;;;26.63;42.49
81897;BME280;71360;43.506;1.500;2023-07-13T11:25:35;100279.53;;;26.68;42.96
81897;BME280;71360;43.506;1.500;2023-07-13T11:33:19;100270.00;;;26.72;42.81
81897;BME280;71360;43.506;1.500;2023-07-13T11:38:29;100261.31;;;26.76;42.23
81897;BME280;71360;43.506;1.500;2023-07-13T11:40:59;100260.44;;;26.76;42.72
81897;BME280;71360;43.506;1.500;2023-07-13T11:43:28;100244.72;;;26.78;42.04
81897;BME280;71360;43.506;1.500;2023-07-13T11:45:53;100252.78;;;26.79;42.95
81897;BME280;71360;43.506;1.500;2023-07-13T11:50:51;100239.56;;;26.83;42.97
81897;BME280;71360;43.506;1.500;2023-07-13T11:53:19;100240.47;;;26.84;42.25
81897;BME280;71360;43.506;1.500;2023-07-13T11:55:44;100245.63;;;26.87;42.24
81897;BME280;71360;43.506;1.500;2023-07-13T11:58:14;100235.50;;;26.87;42.92
81897;BME280;71360;43.506;1.500;2023-07-13T12:00:42;100236.38;;;26.88;42.74
81897;BME280;71360;43.506;1.500;2023-07-13T12:03:11;100233.47;;;26.89;42.78
81897;BME280;71360;43.506;1.500;2023-07-13T12:05:37;100224.06;;;26.92;42.69
81897;BME280;71360;43.506;1.500;2023-07-13T12:08:19;100225.78;;;26.93;42.14
81897;BME280;71360;43.506;1.500;2023-07-13T12:10:46;100233.69;;;26.96;42.70
81897;BME280;71360;43.506;1.500;2023-07-13T12:13:12;100229.94;;;26.97;42.73
81897;BME280;71360;43.506;1.500;2023-07-13T12:15:44;100226.16;;;26.98;42.20
81897;BME280;71360;43.506;1.500;2023-07-13T12:18:23;100224.13;;;27.00;43.22
81897;BME280;71360;43.506;1.500;2023-07-13T12:20:50;100227.72;;;27.01;43.10
81897;BME280;71360;43.506;1.500;2023-07-13T12:23:24;100217.47;;;27.03;42.97
81897;BME280;71360;43.506;1.500;2023-07-13T12:25:51;100219.19;;;27.04;43.08
81897;BME280;71360;43.506;1.500;2023-07-13T12:31:04;100204.28;;;27.06;42.75
81897;BME280;71360;43.506;1.500;2023-07-13T12:33:31;100215.94;;;27.08;42.60
81897;BME280;71360;43.506;1.500;2023-07-13T12:36:00;100206.72;;;27.09;42.61
81897;BME280;71360;43.506;1.500;2023-07-13T12:38:27;100205.69;;;27.10;42.71
81897;BME280;71360;43.506;1.500;2023-07-13T12:40:53;100207.38;;;27.11;42.03
81897;BME280;71360;43.506;1.500;2023-07-13T12:43:23;100198.84;;;27.15;42.65
81897;BME280;71360;43.506;1.500;2023-07-13T12:45:56;100203.28;;;27.16;42.71
81897;BME280;71360;43.506;1.500;2023-07-13T12:48:22;100206.75;;;27.18;42.87
81897;BME280;71360;43.506;1.500;2023-07-13T12:50:49;100209.34;;;27.19;42.39
81897;BME280;71360;43.506;1.500;2023-07-13T12:53:21;100198.19;;;27.21;42.77
81897;BME280;71360;43.506;1.500;2023-07-13T12:55:53;100206.25;;;27.22;42.66
81897;BME280;71360;43.506;1.500;2023-07-13T12:58:26;100201.66;;;27.23;42.29
81897;BME280;71360;43.506;1.500;2023-07-13T13:00:55;100210.56;;;27.25;42.96
81897;BME280;71360;43.506;1.500;2023-07-13T13:05:47;100212.28;;;27.26;42.49
81897;BME280;71360;43.506;1.500;2023-07-13T13:08:13;100210.41;;;27.26;42.16
81897;BME280;71360;43.506;1.500;2023-07-13T13:10:38;100200.31;;;27.27;41.95
81897;BME280;71360;43.506;1.500;2023-07-13T13:13:04;100207.34;;;27.29;42.17
81897;BME280;71360;43.506;1.500;2023-07-13T13:15:29;100195.50;;;27.29;42.15
81897;BME280;71360;43.506;1.500;2023-07-13T13:17:56;100199.97;;;27.30;42.20
81897;BME280;71360;43.506;1.500;2023-07-13T13:20:25;100203.56;;;27.30;41.88
81897;BME280;71360;43.506;1.500;2023-07-13T13:22:53;100198.94;;;27.31;42.65
81897;BME280;71360;43.506;1.500;2023-07-13T13:25:21;100189.66;;;27.32;41.72
81897;BME280;71360;43.506;1.500;2023-07-13T13:27:47;100185.91;;;27.33;42.34
81897;BME280;71360;43.506;1.500;2023-07-13T13:30:16;100173.91;;;27.34;42.28
81897;BME280;71360;43.506;1.500;2023-07-13T13:32:44;100183.88;;;27.35;41.80
81897;BME280;71360;43.506;1.500;2023-07-13T13:35:18;100188.22;;;27.38;42.46
81897;BME280;71360;43.506;1.500;2023-07-13T13:37:44;100184.59;;;27.37;42.38
81897;BME280;71360;43.506;1.500;2023-07-13T13:40:21;100179.81;;;27.39;42.40